sensor_id;sensor_type;location;lat;lon;timestamp;P1;durP1;ratioP1;P2;durP2;ratioP2
6791;SDS011;3433;48.730;9.108;2022-09-03T00:00:38;7.13;;;3.47;;
6791;SDS011;3433;48.730;9.108;2022-09-03T00:03:32;3.13;;;2.80;;
6791;SDS011;3433;48.730;9.108;2022-09-03T00:06:26;3.50;;;3.00;;
6791;SDS011;3433;48.730;9.108;2022-09-03T00:09:20;3.07;;;2.77;;
6791;SDS011;3433;48.730;9.108;2022-09-03T00:12:12;2.90;;;2.70;;
6791;SDS011;3433;48.730;9.108;2022-09-03T00:15:05;3.10;;;2.80;;
6791;SDS011;3433;48.730;9.108;2022-09-03T00:17:56;3.50;;;3.23;;
6791;SDS011;3433;48.730;9.108;2022-09-03T00:20:50;6.00;;;2.87;;
6791;SDS011;3433;48.730;9.108;2022-09-03T00:23:41;5.27;;;2.43;;
6791;SDS011;3433;48.730;9.108;2022-09-03T00:26:33;3.23;;;2.50;;
6791;SDS011;3433;48.730;9.108;2022-09-03T00:29:23;5.67;;;2.50;;
6791;SDS011;3433;48.730;9.108;2022-09-03T00:32:16;3.10;;;2.60;;
6791;SDS011;3433;48.730;9.108;2022-09-03T00:35:07;2.80;;;2.60;;
6791;SDS011;3433;48.730;9.108;2022-09-03T00:38:02;2.70;;;2.50;;
6791;SDS011;3433;48.730;9.108;2022-09-03T00:40:56;2.30;;;2.10;;
6791;SDS011;3433;48.730;9.108;2022-09-03T00:43:56;2.33;;;2.07;;
6791;SDS011;3433;48.730;9.108;2022-09-03T00:47:11;3.60;;;2.70;;
6791;SDS011;3433;48.730;9.108;2022-09-03T00:50:06;2.40;;;2.20;;
6791;SDS011;3433;48.730;9.108;2022-09-03T00:53:02;2.87;;;2.53;;
6791;SDS011;3433;48.730;9.108;2022-09-03T00:55:59;3.50;;;2.00;;
6791;SDS011;3433;48.730;9.108;2022-09-03T00:58:56;2.10;;;1.90;;
6791;SDS011;3433;48.730;9.108;2022-09-03T01:01:55;4.30;;;2.37;;
6791;SDS011;3433;48.730;9.108;2022-09-03T01:04:55;3.00;;;2.50;;
6791;SDS011;3433;48.730;9.108;2022-09-03T01:07:53;5.63;;;2.17;;
6791;SDS011;3433;48.730;9.108;2022-09-03T01:10:55;3.63;;;2.53;;
6791;SDS011;3433;48.730;9.108;2022-09-03T01:13:52;2.80;;;2.60;;
6791;SDS011;3433;48.730;9.108;2022-09-03T01:16:47;2.67;;;2.47;;
6791;SDS011;3433;48.730;9.108;2022-09-03T01:19:51;3.13;;;2.67;;
6791;SDS011;3433;48.730;9.108;2022-09-03T01:26:28;2.47;;;2.27;;
6791;SDS011;3433;48.730;9.108;2022-09-03T01:29:26;2.87;;;2.67;;
6791;SDS011;3433;48.730;9.108;2022-09-03T01:32:21;2.83;;;2.63;;
6791;SDS011;3433;48.730;9.108;2022-09-03T01:35:26;4.90;;;2.47;;
6791;SDS011;3433;48.730;9.108;2022-09-03T01:38:22;2.27;;;2.10;;
6791;SDS011;3433;48.730;9.108;2022-09-03T01:41:18;2.93;;;2.23;;
6791;SDS011;3433;48.730;9.108;2022-09-03T01:44:34;2.80;;;2.60;;
6791;SDS011;3433;48.730;9.108;2022-09-03T01:47:30;3.17;;;2.37;;
6791;SDS011;3433;48.730;9.108;2022-09-03T01:50:35;11.10;;;2.50;;
6791;SDS011;3433;48.730;9.108;2022-09-03T01:53:33;2.20;;;2.10;;
6791;SDS011;3433;48.730;9.108;2022-09-03T01:56:34;2.73;;;2.53;;
6791;SDS011;3433;48.730;9.108;2022-09-03T01:59:33;2.47;;;2.30;;
6791;SDS011;3433;48.730;9.108;2022-09-03T02:02:26;3.07;;;2.80;;
6791;SDS011;3433;48.730;9.108;2022-09-03T02:05:15;3.40;;;2.40;;
6791;SDS011;3433;48.730;9.108;2022-09-03T02:08:08;2.87;;;2.53;;
6791;SDS011;3433;48.730;9.108;2022-09-03T02:10:56;4.17;;;2.90;;
6791;SDS011;3433;48.730;9.108;2022-09-03T02:13:46;3.27;;;2.97;;
6791;SDS011;3433;48.730;9.108;2022-09-03T02:16:39;3.43;;;2.73;;
6791;SDS011;3433;48.730;9.108;2022-09-03T02:19:27;3.63;;;2.27;;
6791;SDS011;3433;48.730;9.108;2022-09-03T02:22:16;2.67;;;2.47;;
6791;SDS011;3433;48.730;9.108;2022-09-03T02:25:04;3.40;;;2.70;;
6791;SDS011;3433;48.730;9.108;2022-09-03T02:27:52;2.70;;;2.33;;
6791;SDS011;3433;48.730;9.108;2022-09-03T02:30:40;4.03;;;2.70;;
6791;SDS011;3433;48.730;9.108;2022-09-03T02:33:35;2.57;;;2.40;;
6791;SDS011;3433;48.730;9.108;2022-09-03T02:36:24;3.90;;;2.57;;
6791;SDS011;3433;48.730;9.108;2022-09-03T02:39:14;2.50;;;2.33;;
6791;SDS011;3433;48.730;9.108;2022-09-03T02:42:02;4.47;;;2.60;;
6791;SDS011;3433;48.730;9.108;2022-09-03T02:44:50;2.63;;;2.33;;
6791;SDS011;3433;48.730;9.108;2022-09-03T02:47:40;3.23;;;2.77;;
6791;SDS011;3433;48.730;9.108;2022-09-03T02:50:38;2.80;;;2.60;;
6791;SDS011;3433;48.730;9.108;2022-09-03T02:53:26;4.13;;;2.83;;
6791;SDS011;3433;48.730;9.108;2022-09-03T02:56:13;2.70;;;2.50;;
6791;SDS011;3433;48.730;9.108;2022-09-03T02:59:01;2.90;;;2.70;;
6791;SDS011;3433;48.730;9.108;2022-09-03T03:01:49;2.77;;;2.57;;
6791;SDS011;3433;48.730;9.108;2022-09-03T03:04:37;3.87;;;3.10;;
6791;SDS011;3433;48.730;9.108;2022-09-03T03:07:26;3.33;;;3.03;;
6791;SDS011;3433;48.730;9.108;2022-09-03T03:10:15;3.20;;;2.77;;
6791;SDS011;3433;48.730;9.108;2022-09-03T03:13:03;3.10;;;2.90;;
6791;SDS011;3433;48.730;9.108;2022-09-03T03:15:50;5.53;;;3.23;;
6791;SDS011;3433;48.730;9.108;2022-09-03T03:18:41;5.10;;;2.87;;
6791;SDS011;3433;48.730;9.108;2022-09-03T03:21:30;4.03;;;2.80;;
6791;SDS011;3433;48.730;9.108;2022-09-03T03:24:19;3.20;;;2.70;;
6791;SDS011;3433;48.730;9.108;2022-09-03T03:27:06;3.10;;;2.90;;
6791;SDS011;3433;48.730;9.108;2022-09-03T03:29:55;4.03;;;2.77;;
6791;SDS011;3433;48.730;9.108;2022-09-03T03:32:42;6.47;;;3.30;;
6791;SDS011;3433;48.730;9.108;2022-09-03T03:35:30;3.23;;;2.93;;
6791;SDS011;3433;48.730;9.108;2022-09-03T03:38:17;3.83;;;3.43;;
6791;SDS011;3433;48.730;9.108;2022-09-03T03:41:10;3.83;;;3.30;;
6791;SDS011;3433;48.730;9.108;2022-09-03T03:44:00;5.03;;;3.20;;
6791;SDS011;3433;48.730;9.108;2022-09-03T03:46:49;3.97;;;3.67;;
6791;SDS011;3433;48.730;9.108;2022-09-03T03:49:37;3.90;;;3.60;;
6791;SDS011;3433;48.730;9.108;2022-09-03T03:52:24;3.83;;;3.37;;
6791;SDS011;3433;48.730;9.108;2022-09-03T03:55:12;4.03;;;3.70;;
6791;SDS011;3433;48.730;9.108;2022-09-03T03:58:01;5.30;;;3.30;;
6791;SDS011;3433;48.730;9.108;2022-09-03T04:00:49;4.40;;;3.87;;
6791;SDS011;3433;48.730;9.108;2022-09-03T04:03:36;3.70;;;3.40;;
6791;SDS011;3433;48.730;9.108;2022-09-03T04:06:24;4.23;;;3.93;;
6791;SDS011;3433;48.730;9.108;2022-09-03T04:09:12;4.20;;;3.80;;
6791;SDS011;3433;48.730;9.108;2022-09-03T04:11:59;3.70;;;3.40;;
6791;SDS011;3433;48.730;9.108;2022-09-03T04:14:49;3.63;;;3.33;;
6791;SDS011;3433;48.730;9.108;2022-09-03T04:17:36;5.00;;;3.90;;
6791;SDS011;3433;48.730;9.108;2022-09-03T04:20:24;3.93;;;3.63;;
6791;SDS011;3433;48.730;9.108;2022-09-03T04:23:11;3.63;;;3.33;;
6791;SDS011;3433;48.730;9.108;2022-09-03T04:25:58;5.97;;;3.43;;
6791;SDS011;3433;48.730;9.108;2022-09-03T04:28:46;4.93;;;3.90;;
6791;SDS011;3433;48.730;9.108;2022-09-03T04:31:35;3.87;;;3.30;;
6791;SDS011;3433;48.730;9.108;2022-09-03T04:34:23;3.43;;;3.23;;
6791;SDS011;3433;48.730;9.108;2022-09-03T04:37:10;3.67;;;3.33;;
6791;SDS011;3433;48.730;9.108;2022-09-03T04:39:57;9.73;;;3.80;;
6791;SDS011;3433;48.730;9.108;2022-09-03T04:42:45;4.83;;;3.57;;
6791;SDS011;3433;48.730;9.108;2022-09-03T04:45:32;3.50;;;3.20;;
6791;SDS011;3433;48.730;9.108;2022-09-03T04:48:20;3.37;;;3.07;;
6791;SDS011;3433;48.730;9.108;2022-09-03T04:51:09;3.90;;;3.30;;
6791;SDS011;3433;48.730;9.108;2022-09-03T04:53:58;4.63;;;4.07;;
6791;SDS011;3433;48.730;9.108;2022-09-03T04:56:46;4.47;;;4.07;;
6791;SDS011;3433;48.730;9.108;2022-09-03T04:59:34;5.27;;;3.73;;
6791;SDS011;3433;48.730;9.108;2022-09-03T05:02:21;3.83;;;3.53;;
6791;SDS011;3433;48.730;9.108;2022-09-03T05:05:10;4.23;;;3.87;;
6791;SDS011;3433;48.730;9.108;2022-09-03T05:07:57;4.63;;;3.60;;
6791;SDS011;3433;48.730;9.108;2022-09-03T05:10:45;4.53;;;4.10;;
6791;SDS011;3433;48.730;9.108;2022-09-03T05:13:33;4.37;;;3.90;;
6791;SDS011;3433;48.730;9.108;2022-09-03T05:16:22;6.83;;;3.70;;
6791;SDS011;3433;48.730;9.108;2022-09-03T05:19:12;6.97;;;4.23;;
6791;SDS011;3433;48.730;9.108;2022-09-03T05:22:01;4.73;;;3.97;;
6791;SDS011;3433;48.730;9.108;2022-09-03T05:24:49;4.23;;;3.83;;
6791;SDS011;3433;48.730;9.108;2022-09-03T05:27:36;6.20;;;3.43;;
6791;SDS011;3433;48.730;9.108;2022-09-03T05:30:23;3.50;;;3.20;;
6791;SDS011;3433;48.730;9.108;2022-09-03T05:33:11;3.90;;;3.60;;
6791;SDS011;3433;48.730;9.108;2022-09-03T05:35:59;4.23;;;3.87;;
6791;SDS011;3433;48.730;9.108;2022-09-03T05:38:49;4.90;;;4.40;;
6791;SDS011;3433;48.730;9.108;2022-09-03T05:41:38;4.23;;;3.73;;
6791;SDS011;3433;48.730;9.108;2022-09-03T05:44:25;4.17;;;3.77;;
6791;SDS011;3433;48.730;9.108;2022-09-03T05:47:13;5.23;;;4.57;;
6791;SDS011;3433;48.730;9.108;2022-09-03T05:50:00;4.63;;;4.20;;
6791;SDS011;3433;48.730;9.108;2022-09-03T05:52:47;4.40;;;4.00;;
6791;SDS011;3433;48.730;9.108;2022-09-03T05:55:36;5.93;;;4.10;;
6791;SDS011;3433;48.730;9.108;2022-09-03T05:58:23;4.90;;;4.40;;
6791;SDS011;3433;48.730;9.108;2022-09-03T06:01:11;5.17;;;4.77;;
6791;SDS011;3433;48.730;9.108;2022-09-03T06:04:00;5.50;;;4.00;;
6791;SDS011;3433;48.730;9.108;2022-09-03T06:06:49;4.90;;;4.43;;
6791;SDS011;3433;48.730;9.108;2022-09-03T06:09:36;4.67;;;4.27;;
6791;SDS011;3433;48.730;9.108;2022-09-03T06:12:25;5.00;;;4.60;;
6791;SDS011;3433;48.730;9.108;2022-09-03T06:15:12;5.60;;;4.80;;
6791;SDS011;3433;48.730;9.108;2022-09-03T06:17:59;6.10;;;5.20;;
6791;SDS011;3433;48.730;9.108;2022-09-03T06:20:52;4.93;;;4.53;;
6791;SDS011;3433;48.730;9.108;2022-09-03T06:23:40;6.73;;;4.90;;
6791;SDS011;3433;48.730;9.108;2022-09-03T06:26:27;5.47;;;5.03;;
6791;SDS011;3433;48.730;9.108;2022-09-03T06:29:16;6.87;;;4.60;;
6791;SDS011;3433;48.730;9.108;2022-09-03T06:32:04;8.87;;;5.10;;
6791;SDS011;3433;48.730;9.108;2022-09-03T06:34:51;6.50;;;4.87;;
6791;SDS011;3433;48.730;9.108;2022-09-03T06:37:39;6.50;;;4.70;;
6791;SDS011;3433;48.730;9.108;2022-09-03T06:40:27;5.80;;;5.30;;
6791;SDS011;3433;48.730;9.108;2022-09-03T06:43:16;6.67;;;5.60;;
6791;SDS011;3433;48.730;9.108;2022-09-03T06:46:05;7.60;;;5.30;;
6791;SDS011;3433;48.730;9.108;2022-09-03T06:48:53;6.60;;;4.80;;
6791;SDS011;3433;48.730;9.108;2022-09-03T06:51:40;5.17;;;4.67;;
6791;SDS011;3433;48.730;9.108;2022-09-03T06:54:28;5.53;;;5.03;;
6791;SDS011;3433;48.730;9.108;2022-09-03T06:57:15;5.67;;;5.17;;
6791;SDS011;3433;48.730;9.108;2022-09-03T07:00:03;5.37;;;4.87;;
6791;SDS011;3433;48.730;9.108;2022-09-03T07:02:56;6.03;;;4.87;;
6791;SDS011;3433;48.730;9.108;2022-09-03T07:05:44;5.07;;;4.67;;
6791;SDS011;3433;48.730;9.108;2022-09-03T07:08:32;5.07;;;4.67;;
6791;SDS011;3433;48.730;9.108;2022-09-03T07:11:21;5.20;;;4.80;;
6791;SDS011;3433;48.730;9.108;2022-09-03T07:14:10;8.17;;;4.80;;
6791;SDS011;3433;48.730;9.108;2022-09-03T07:16:57;5.77;;;4.80;;
6791;SDS011;3433;48.730;9.108;2022-09-03T07:19:46;6.43;;;4.50;;
6791;SDS011;3433;48.730;9.108;2022-09-03T07:22:33;7.00;;;5.13;;
6791;SDS011;3433;48.730;9.108;2022-09-03T07:25:21;5.03;;;4.63;;
6791;SDS011;3433;48.730;9.108;2022-09-03T07:28:08;6.47;;;5.53;;
6791;SDS011;3433;48.730;9.108;2022-09-03T07:30:59;6.53;;;4.70;;
6791;SDS011;3433;48.730;9.108;2022-09-03T07:33:48;7.47;;;4.70;;
6791;SDS011;3433;48.730;9.108;2022-09-03T07:36:37;6.63;;;5.60;;
6791;SDS011;3433;48.730;9.108;2022-09-03T07:39:26;5.53;;;5.03;;
6791;SDS011;3433;48.730;9.108;2022-09-03T07:42:13;7.00;;;4.37;;
6791;SDS011;3433;48.730;9.108;2022-09-03T07:45:01;5.67;;;5.17;;
6791;SDS011;3433;48.730;9.108;2022-09-03T07:47:49;7.93;;;4.50;;
6791;SDS011;3433;48.730;9.108;2022-09-03T07:50:37;5.03;;;4.23;;
6791;SDS011;3433;48.730;9.108;2022-09-03T07:53:26;4.90;;;4.50;;
6791;SDS011;3433;48.730;9.108;2022-09-03T07:56:14;4.40;;;4.00;;
6791;SDS011;3433;48.730;9.108;2022-09-03T07:59:02;4.77;;;4.37;;
6791;SDS011;3433;48.730;9.108;2022-09-03T08:01:50;5.30;;;4.20;;
6791;SDS011;3433;48.730;9.108;2022-09-03T08:04:38;4.47;;;4.07;;
6791;SDS011;3433;48.730;9.108;2022-09-03T08:07:25;4.40;;;4.10;;
6791;SDS011;3433;48.730;9.108;2022-09-03T08:10:16;4.40;;;4.10;;
6791;SDS011;3433;48.730;9.108;2022-09-03T08:13:03;4.67;;;4.27;;
6791;SDS011;3433;48.730;9.108;2022-09-03T08:15:53;5.60;;;4.43;;
6791;SDS011;3433;48.730;9.108;2022-09-03T08:18:41;6.00;;;4.40;;
6791;SDS011;3433;48.730;9.108;2022-09-03T08:21:28;4.60;;;4.20;;
6791;SDS011;3433;48.730;9.108;2022-09-03T08:24:16;4.90;;;4.50;;
6791;SDS011;3433;48.730;9.108;2022-09-03T08:27:06;5.57;;;5.07;;
6791;SDS011;3433;48.730;9.108;2022-09-03T08:29:54;4.87;;;4.47;;
6791;SDS011;3433;48.730;9.108;2022-09-03T08:32:41;4.30;;;3.90;;
6791;SDS011;3433;48.730;9.108;2022-09-03T08:35:28;4.90;;;4.50;;
6791;SDS011;3433;48.730;9.108;2022-09-03T08:38:19;4.67;;;4.17;;
6791;SDS011;3433;48.730;9.108;2022-09-03T08:41:06;4.80;;;3.70;;
6791;SDS011;3433;48.730;9.108;2022-09-03T08:44:03;4.30;;;3.50;;
6791;SDS011;3433;48.730;9.108;2022-09-03T08:47:00;4.27;;;3.87;;
6791;SDS011;3433;48.730;9.108;2022-09-03T08:49:54;4.43;;;3.90;;
6791;SDS011;3433;48.730;9.108;2022-09-03T08:52:44;4.33;;;3.93;;
6791;SDS011;3433;48.730;9.108;2022-09-03T08:55:34;3.57;;;3.23;;
6791;SDS011;3433;48.730;9.108;2022-09-03T08:58:28;6.30;;;4.30;;
6791;SDS011;3433;48.730;9.108;2022-09-03T09:01:22;5.63;;;4.97;;
6791;SDS011;3433;48.730;9.108;2022-09-03T09:04:22;4.23;;;3.93;;
6791;SDS011;3433;48.730;9.108;2022-09-03T09:07:21;3.60;;;3.30;;
6791;SDS011;3433;48.730;9.108;2022-09-03T09:10:18;4.07;;;3.77;;
6791;SDS011;3433;48.730;9.108;2022-09-03T09:13:16;4.27;;;3.97;;
6791;SDS011;3433;48.730;9.108;2022-09-03T09:16:12;4.30;;;4.00;;
6791;SDS011;3433;48.730;9.108;2022-09-03T09:19:09;4.70;;;4.23;;
6791;SDS011;3433;48.730;9.108;2022-09-03T09:22:08;4.13;;;3.83;;
6791;SDS011;3433;48.730;9.108;2022-09-03T09:25:00;4.13;;;3.83;;
6791;SDS011;3433;48.730;9.108;2022-09-03T09:27:55;4.17;;;3.80;;
6791;SDS011;3433;48.730;9.108;2022-09-03T09:30:46;4.73;;;4.33;;
6791;SDS011;3433;48.730;9.108;2022-09-03T09:33:34;4.50;;;3.83;;
6791;SDS011;3433;48.730;9.108;2022-09-03T09:36:23;4.33;;;4.03;;
6791;SDS011;3433;48.730;9.108;2022-09-03T09:39:11;4.97;;;3.93;;
6791;SDS011;3433;48.730;9.108;2022-09-03T09:42:00;4.40;;;4.10;;
6791;SDS011;3433;48.730;9.108;2022-09-03T09:44:53;4.57;;;4.17;;
6791;SDS011;3433;48.730;9.108;2022-09-03T09:47:41;4.10;;;3.73;;
6791;SDS011;3433;48.730;9.108;2022-09-03T09:50:28;4.53;;;4.23;;
6791;SDS011;3433;48.730;9.108;2022-09-03T09:53:17;4.33;;;3.93;;
6791;SDS011;3433;48.730;9.108;2022-09-03T09:56:06;4.70;;;4.30;;
6791;SDS011;3433;48.730;9.108;2022-09-03T09:59:04;7.50;;;4.50;;
6791;SDS011;3433;48.730;9.108;2022-09-03T10:02:01;3.87;;;3.57;;
6791;SDS011;3433;48.730;9.108;2022-09-03T10:04:55;5.30;;;4.90;;
6791;SDS011;3433;48.730;9.108;2022-09-03T10:07:53;4.60;;;4.20;;
6791;SDS011;3433;48.730;9.108;2022-09-03T10:10:45;5.03;;;4.47;;
6791;SDS011;3433;48.730;9.108;2022-09-03T10:13:34;5.03;;;4.50;;
6791;SDS011;3433;48.730;9.108;2022-09-03T10:16:28;5.10;;;4.70;;
6791;SDS011;3433;48.730;9.108;2022-09-03T10:19:22;4.40;;;4.10;;
6791;SDS011;3433;48.730;9.108;2022-09-03T10:22:19;6.30;;;5.80;;
6791;SDS011;3433;48.730;9.108;2022-09-03T10:25:07;5.97;;;5.47;;
6791;SDS011;3433;48.730;9.108;2022-09-03T10:27:57;6.17;;;4.70;;
6791;SDS011;3433;48.730;9.108;2022-09-03T10:30:50;5.07;;;4.70;;
6791;SDS011;3433;48.730;9.108;2022-09-03T10:34:01;4.47;;;4.17;;
6791;SDS011;3433;48.730;9.108;2022-09-03T10:36:55;4.53;;;4.23;;
6791;SDS011;3433;48.730;9.108;2022-09-03T10:40:00;5.10;;;4.47;;
6791;SDS011;3433;48.730;9.108;2022-09-03T10:43:02;5.10;;;4.70;;
6791;SDS011;3433;48.730;9.108;2022-09-03T10:46:02;4.93;;;4.53;;
6791;SDS011;3433;48.730;9.108;2022-09-03T10:49:01;4.97;;;4.47;;
6791;SDS011;3433;48.730;9.108;2022-09-03T10:52:06;5.60;;;4.63;;
6791;SDS011;3433;48.730;9.108;2022-09-03T10:55:06;5.80;;;4.80;;
6791;SDS011;3433;48.730;9.108;2022-09-03T10:58:04;5.43;;;5.00;;
6791;SDS011;3433;48.730;9.108;2022-09-03T11:01:02;5.53;;;5.03;;
6791;SDS011;3433;48.730;9.108;2022-09-03T11:03:59;4.77;;;4.37;;
6791;SDS011;3433;48.730;9.108;2022-09-03T11:07:04;5.90;;;5.23;;
6791;SDS011;3433;48.730;9.108;2022-09-03T11:09:56;6.03;;;5.27;;
6791;SDS011;3433;48.730;9.108;2022-09-03T11:12:52;6.13;;;5.53;;
6791;SDS011;3433;48.730;9.108;2022-09-03T11:15:49;5.47;;;5.00;;
6791;SDS011;3433;48.730;9.108;2022-09-03T11:18:40;5.70;;;5.23;;
6791;SDS011;3433;48.730;9.108;2022-09-03T11:21:30;5.80;;;5.30;;
6791;SDS011;3433;48.730;9.108;2022-09-03T11:24:19;5.33;;;4.80;;
6791;SDS011;3433;48.730;9.108;2022-09-03T11:27:14;5.67;;;5.17;;
6791;SDS011;3433;48.730;9.108;2022-09-03T11:30:10;5.27;;;4.87;;
6791;SDS011;3433;48.730;9.108;2022-09-03T11:33:05;6.53;;;5.60;;
6791;SDS011;3433;48.730;9.108;2022-09-03T11:35:56;6.47;;;5.87;;
6791;SDS011;3433;48.730;9.108;2022-09-03T11:38:46;6.23;;;5.63;;
6791;SDS011;3433;48.730;9.108;2022-09-03T11:41:33;8.00;;;5.77;;
6791;SDS011;3433;48.730;9.108;2022-09-03T11:44:21;7.50;;;5.70;;
6791;SDS011;3433;48.730;9.108;2022-09-03T11:47:12;5.80;;;5.10;;
6791;SDS011;3433;48.730;9.108;2022-09-03T11:50:06;5.93;;;5.43;;
6791;SDS011;3433;48.730;9.108;2022-09-03T11:53:07;5.23;;;4.83;;
6791;SDS011;3433;48.730;9.108;2022-09-03T11:55:58;6.03;;;5.37;;
6791;SDS011;3433;48.730;9.108;2022-09-03T11:58:57;5.63;;;5.23;;
6791;SDS011;3433;48.730;9.108;2022-09-03T12:01:48;8.27;;;6.20;;
6791;SDS011;3433;48.730;9.108;2022-09-03T12:04:39;5.50;;;5.10;;
6791;SDS011;3433;48.730;9.108;2022-09-03T12:07:40;6.30;;;5.00;;
6791;SDS011;3433;48.730;9.108;2022-09-03T12:10:45;5.30;;;4.80;;
6791;SDS011;3433;48.730;9.108;2022-09-03T12:13:43;5.40;;;5.00;;
6791;SDS011;3433;48.730;9.108;2022-09-03T12:19:56;7.20;;;5.87;;
6791;SDS011;3433;48.730;9.108;2022-09-03T12:22:46;5.33;;;4.90;;
6791;SDS011;3433;48.730;9.108;2022-09-03T12:25:33;3.73;;;3.33;;
6791;SDS011;3433;48.730;9.108;2022-09-03T12:28:21;4.03;;;3.10;;
6791;SDS011;3433;48.730;9.108;2022-09-03T12:31:13;3.90;;;2.90;;
6791;SDS011;3433;48.730;9.108;2022-09-03T12:34:08;4.13;;;2.33;;
6791;SDS011;3433;48.730;9.108;2022-09-03T12:36:58;3.37;;;2.87;;
6791;SDS011;3433;48.730;9.108;2022-09-03T12:39:50;6.10;;;3.07;;
6791;SDS011;3433;48.730;9.108;2022-09-03T12:42:38;3.90;;;3.43;;
6791;SDS011;3433;48.730;9.108;2022-09-03T12:45:25;4.70;;;2.93;;
6791;SDS011;3433;48.730;9.108;2022-09-03T12:48:13;6.50;;;2.57;;
6791;SDS011;3433;48.730;9.108;2022-09-03T12:51:01;6.63;;;3.10;;
6791;SDS011;3433;48.730;9.108;2022-09-03T12:53:49;2.63;;;2.40;;
6791;SDS011;3433;48.730;9.108;2022-09-03T12:56:39;2.60;;;2.20;;
6791;SDS011;3433;48.730;9.108;2022-09-03T12:59:28;2.77;;;2.47;;
6791;SDS011;3433;48.730;9.108;2022-09-03T13:02:19;3.07;;;2.10;;
6791;SDS011;3433;48.730;9.108;2022-09-03T13:05:12;3.00;;;2.43;;
6791;SDS011;3433;48.730;9.108;2022-09-03T13:08:04;2.80;;;2.60;;
6791;SDS011;3433;48.730;9.108;2022-09-03T13:10:56;3.37;;;2.50;;
6791;SDS011;3433;48.730;9.108;2022-09-03T13:13:52;3.70;;;2.70;;
6791;SDS011;3433;48.730;9.108;2022-09-03T13:16:55;3.23;;;2.40;;
6791;SDS011;3433;48.730;9.108;2022-09-03T13:19:57;4.23;;;1.97;;
6791;SDS011;3433;48.730;9.108;2022-09-03T13:23:21;5.77;;;2.20;;
6791;SDS011;3433;48.730;9.108;2022-09-03T13:26:24;2.57;;;2.37;;
6791;SDS011;3433;48.730;9.108;2022-09-03T13:29:23;4.80;;;2.17;;
6791;SDS011;3433;48.730;9.108;2022-09-03T13:32:24;1.90;;;1.70;;
6791;SDS011;3433;48.730;9.108;2022-09-03T13:35:23;2.43;;;1.90;;
6791;SDS011;3433;48.730;9.108;2022-09-03T13:38:18;3.37;;;1.80;;
6791;SDS011;3433;48.730;9.108;2022-09-03T13:41:11;2.60;;;1.53;;
6791;SDS011;3433;48.730;9.108;2022-09-03T13:44:05;2.47;;;1.77;;
6791;SDS011;3433;48.730;9.108;2022-09-03T13:46:59;1.70;;;1.60;;
6791;SDS011;3433;48.730;9.108;2022-09-03T13:49:52;2.10;;;1.80;;
6791;SDS011;3433;48.730;9.108;2022-09-03T13:53:00;2.37;;;1.77;;
6791;SDS011;3433;48.730;9.108;2022-09-03T13:55:53;2.67;;;1.73;;
6791;SDS011;3433;48.730;9.108;2022-09-03T13:58:43;2.40;;;1.87;;
6791;SDS011;3433;48.730;9.108;2022-09-03T14:01:45;5.43;;;2.30;;
6791;SDS011;3433;48.730;9.108;2022-09-03T14:04:57;2.20;;;1.80;;
6791;SDS011;3433;48.730;9.108;2022-09-03T14:07:53;2.23;;;2.03;;
6791;SDS011;3433;48.730;9.108;2022-09-03T14:10:54;3.87;;;1.70;;
6791;SDS011;3433;48.730;9.108;2022-09-03T14:13:57;3.90;;;1.80;;
6791;SDS011;3433;48.730;9.108;2022-09-03T14:16:54;1.83;;;1.73;;
6791;SDS011;3433;48.730;9.108;2022-09-03T14:19:47;2.23;;;2.00;;
6791;SDS011;3433;48.730;9.108;2022-09-03T14:22:44;1.90;;;1.67;;
6791;SDS011;3433;48.730;9.108;2022-09-03T14:25:36;1.60;;;1.50;;
6791;SDS011;3433;48.730;9.108;2022-09-03T14:28:27;2.40;;;1.40;;
6791;SDS011;3433;48.730;9.108;2022-09-03T14:31:20;2.90;;;2.10;;
6791;SDS011;3433;48.730;9.108;2022-09-03T14:34:14;1.93;;;1.83;;
6791;SDS011;3433;48.730;9.108;2022-09-03T14:37:16;1.70;;;1.60;;
6791;SDS011;3433;48.730;9.108;2022-09-03T14:40:15;4.00;;;1.87;;
6791;SDS011;3433;48.730;9.108;2022-09-03T14:43:09;1.90;;;1.50;;
6791;SDS011;3433;48.730;9.108;2022-09-03T14:46:07;1.77;;;1.63;;
6791;SDS011;3433;48.730;9.108;2022-09-03T14:49:08;1.70;;;1.60;;
6791;SDS011;3433;48.730;9.108;2022-09-03T14:52:09;1.77;;;1.60;;
6791;SDS011;3433;48.730;9.108;2022-09-03T14:55:12;2.70;;;1.70;;
6791;SDS011;3433;48.730;9.108;2022-09-03T14:58:12;2.20;;;1.77;;
6791;SDS011;3433;48.730;9.108;2022-09-03T15:01:09;1.70;;;1.60;;
6791;SDS011;3433;48.730;9.108;2022-09-03T15:07:30;2.13;;;1.70;;
6791;SDS011;3433;48.730;9.108;2022-09-03T15:10:25;1.70;;;1.60;;
6791;SDS011;3433;48.730;9.108;2022-09-03T15:13:21;1.83;;;1.73;;
6791;SDS011;3433;48.730;9.108;2022-09-03T15:16:17;1.70;;;1.60;;
6791;SDS011;3433;48.730;9.108;2022-09-03T15:19:23;2.50;;;1.70;;
6791;SDS011;3433;48.730;9.108;2022-09-03T15:22:28;1.67;;;1.57;;
6791;SDS011;3433;48.730;9.108;2022-09-03T15:25:27;3.33;;;1.97;;
6791;SDS011;3433;48.730;9.108;2022-09-03T15:28:29;1.87;;;1.40;;
6791;SDS011;3433;48.730;9.108;2022-09-03T15:31:25;2.93;;;2.00;;
6791;SDS011;3433;48.730;9.108;2022-09-03T15:34:28;1.70;;;1.60;;
6791;SDS011;3433;48.730;9.108;2022-09-03T15:37:29;1.83;;;1.73;;
6791;SDS011;3433;48.730;9.108;2022-09-03T15:40:25;1.50;;;1.40;;
6791;SDS011;3433;48.730;9.108;2022-09-03T15:43:17;2.07;;;1.90;;
6791;SDS011;3433;48.730;9.108;2022-09-03T15:46:08;4.70;;;2.27;;
6791;SDS011;3433;48.730;9.108;2022-09-03T15:48:58;2.03;;;1.93;;
6791;SDS011;3433;48.730;9.108;2022-09-03T15:51:53;3.43;;;1.70;;
6791;SDS011;3433;48.730;9.108;2022-09-03T15:54:50;2.10;;;2.00;;
6791;SDS011;3433;48.730;9.108;2022-09-03T15:57:49;1.97;;;1.83;;
6791;SDS011;3433;48.730;9.108;2022-09-03T16:00:52;2.33;;;2.20;;
6791;SDS011;3433;48.730;9.108;2022-09-03T16:03:46;1.93;;;1.83;;
6791;SDS011;3433;48.730;9.108;2022-09-03T16:06:51;7.07;;;1.80;;
6791;SDS011;3433;48.730;9.108;2022-09-03T16:09:45;2.53;;;2.33;;
6791;SDS011;3433;48.730;9.108;2022-09-03T16:12:39;2.40;;;2.20;;
6791;SDS011;3433;48.730;9.108;2022-09-03T16:15:39;2.07;;;1.87;;
6791;SDS011;3433;48.730;9.108;2022-09-03T16:18:33;2.10;;;2.00;;
6791;SDS011;3433;48.730;9.108;2022-09-03T16:21:25;2.13;;;2.03;;
6791;SDS011;3433;48.730;9.108;2022-09-03T16:24:19;2.30;;;2.10;;
6791;SDS011;3433;48.730;9.108;2022-09-03T16:27:13;3.47;;;2.13;;
6791;SDS011;3433;48.730;9.108;2022-09-03T16:30:08;2.43;;;2.23;;
6791;SDS011;3433;48.730;9.108;2022-09-03T16:32:59;1.80;;;1.63;;
6791;SDS011;3433;48.730;9.108;2022-09-03T16:35:56;2.10;;;2.00;;
6791;SDS011;3433;48.730;9.108;2022-09-03T16:38:50;2.57;;;2.10;;
6791;SDS011;3433;48.730;9.108;2022-09-03T16:41:46;2.80;;;1.97;;
6791;SDS011;3433;48.730;9.108;2022-09-03T16:44:45;2.20;;;2.10;;
6791;SDS011;3433;48.730;9.108;2022-09-03T16:47:47;2.23;;;2.03;;
6791;SDS011;3433;48.730;9.108;2022-09-03T16:50:49;2.83;;;1.77;;
6791;SDS011;3433;48.730;9.108;2022-09-03T16:54:04;1.97;;;1.80;;
6791;SDS011;3433;48.730;9.108;2022-09-03T16:57:03;2.10;;;1.90;;
6791;SDS011;3433;48.730;9.108;2022-09-03T17:00:02;2.93;;;2.73;;
6791;SDS011;3433;48.730;9.108;2022-09-03T17:03:00;3.63;;;2.10;;
6791;SDS011;3433;48.730;9.108;2022-09-03T17:09:23;3.00;;;2.70;;
6791;SDS011;3433;48.730;9.108;2022-09-03T17:12:23;3.70;;;3.03;;
6791;SDS011;3433;48.730;9.108;2022-09-03T17:15:22;3.07;;;2.87;;
6791;SDS011;3433;48.730;9.108;2022-09-03T17:18:26;4.40;;;2.87;;
6791;SDS011;3433;48.730;9.108;2022-09-03T17:21:25;3.70;;;2.60;;
6791;SDS011;3433;48.730;9.108;2022-09-03T17:24:28;3.43;;;2.57;;
6791;SDS011;3433;48.730;9.108;2022-09-03T17:27:25;4.20;;;2.70;;
6791;SDS011;3433;48.730;9.108;2022-09-03T17:30:35;5.50;;;3.00;;
6791;SDS011;3433;48.730;9.108;2022-09-03T17:33:43;4.60;;;3.73;;
6791;SDS011;3433;48.730;9.108;2022-09-03T17:36:47;3.80;;;2.90;;
6791;SDS011;3433;48.730;9.108;2022-09-03T17:39:47;3.20;;;2.90;;
6791;SDS011;3433;48.730;9.108;2022-09-03T17:42:48;3.03;;;2.73;;
6791;SDS011;3433;48.730;9.108;2022-09-03T17:45:43;3.40;;;2.90;;
6791;SDS011;3433;48.730;9.108;2022-09-03T17:48:44;3.43;;;3.13;;
6791;SDS011;3433;48.730;9.108;2022-09-03T17:51:38;3.70;;;3.40;;
6791;SDS011;3433;48.730;9.108;2022-09-03T17:54:35;3.83;;;3.40;;
6791;SDS011;3433;48.730;9.108;2022-09-03T17:57:28;5.20;;;3.53;;
6791;SDS011;3433;48.730;9.108;2022-09-03T18:00:24;3.07;;;2.77;;
6791;SDS011;3433;48.730;9.108;2022-09-03T18:03:17;3.80;;;2.93;;
6791;SDS011;3433;48.730;9.108;2022-09-03T18:06:10;3.90;;;2.97;;
6791;SDS011;3433;48.730;9.108;2022-09-03T18:09:09;3.40;;;3.10;;